createdAt,value
2019-03-12T00:01:49.543Z,89.69
2019-03-12T00:04:15.351Z,90.08
2019-03-12T00:06:41.117Z,89.91
2019-03-12T00:09:06.907Z,90.19
2019-03-12T00:11:32.716Z,90.00
2019-03-12T00:13:58.494Z,89.96
2019-03-12T00:16:24.299Z,89.64
2019-03-12T00:18:50.080Z,89.67
2019-03-12T00:21:15.874Z,89.94
2019-03-12T00:23:41.663Z,88.79
2019-03-12T00:26:07.458Z,89.18
2019-03-12T00:28:33.243Z,89.33
2019-03-12T00:30:59.045Z,89.77
2019-03-12T00:33:24.823Z,90.00
2019-03-12T00:35:50.746Z,89.47
2019-03-12T00:38:16.523Z,89.38
2019-03-12T00:40:42.335Z,89.89
2019-03-12T00:43:08.121Z,90.03
2019-03-12T00:45:33.927Z,90.23
2019-03-12T00:47:59.708Z,90.25
2019-03-12T00:50:25.514Z,90.33
2019-03-12T00:52:51.310Z,90.22
2019-03-12T00:55:17.090Z,90.14
2019-03-12T00:57:42.879Z,90.05
2019-03-12T01:00:14.475Z,90.77
2019-03-12T01:02:40.269Z,90.81
2019-03-12T01:05:06.458Z,90.73
2019-03-12T01:07:32.247Z,90.06
2019-03-12T01:09:58.063Z,91.18
2019-03-12T01:12:23.855Z,91.59
2019-03-12T01:14:49.641Z,90.92
2019-03-12T01:17:15.463Z,91.33
2019-03-12T01:19:41.248Z,91.22
2019-03-12T01:22:07.042Z,91.56
2019-03-12T01:24:32.842Z,91.79
2019-03-12T01:26:58.634Z,91.83
2019-03-12T01:29:24.415Z,92.57
2019-03-12T01:31:50.209Z,92.38
2019-03-12T01:34:15.994Z,92.57
2019-03-12T01:36:41.797Z,92.49
2019-03-12T01:39:07.682Z,93.37
2019-03-12T01:41:33.477Z,93.19
2019-03-12T01:43:59.263Z,93.06
2019-03-12T01:46:25.075Z,93.43
2019-03-12T01:48:50.858Z,92.94
2019-03-12T01:51:16.640Z,92.83
2019-03-12T01:53:42.438Z,92.81
2019-03-12T01:56:08.338Z,93.20
2019-03-12T01:58:34.152Z,93.04
2019-03-12T02:00:59.931Z,93.44
2019-03-12T02:03:25.758Z,93.06
2019-03-12T02:05:51.540Z,93.09
2019-03-12T02:08:17.329Z,93.17
2019-03-12T02:10:43.114Z,93.65
2019-03-12T02:13:08.908Z,93.34
2019-03-12T02:15:34.689Z,93.60
2019-03-12T02:18:00.490Z,93.81
2019-03-12T02:20:26.264Z,94.28
2019-03-12T02:22:52.164Z,94.54
2019-03-12T02:25:18.234Z,94.55
2019-03-12T02:27:44.057Z,94.42
2019-03-12T02:30:20.090Z,94.62
2019-03-12T02:32:45.901Z,95.07
2019-03-12T02:35:11.691Z,95.13
2019-03-12T02:37:37.474Z,95.15
2019-03-12T02:40:05.804Z,95.34
2019-03-12T02:42:31.604Z,95.32
2019-03-12T02:44:57.411Z,95.51
2019-03-12T02:47:23.200Z,95.55
2019-03-12T02:49:48.996Z,95.40
2019-03-12T02:52:14.792Z,95.42
2019-03-12T02:54:40.598Z,95.26
2019-03-12T02:57:06.394Z,95.78
2019-03-12T02:59:32.294Z,95.76
2019-03-12T03:01:58.098Z,95.39
2019-03-12T03:04:23.900Z,95.38
2019-03-12T03:06:51.602Z,95.54
2019-03-12T03:09:17.410Z,95.78
2019-03-12T03:11:43.193Z,95.85
2019-03-12T03:14:29.624Z,95.78
2019-03-12T03:16:55.414Z,95.93
2019-03-12T03:19:21.331Z,95.96
2019-03-12T03:21:47.114Z,95.84
2019-03-12T03:24:12.922Z,95.75
2019-03-12T03:26:38.716Z,95.79
2019-03-12T03:29:04.508Z,95.75
2019-03-12T03:31:30.319Z,95.94
2019-03-12T03:33:56.110Z,95.84
2019-03-12T03:36:21.897Z,96.05
2019-03-12T03:38:47.688Z,96.05
2019-03-12T03:41:13.505Z,96.15
2019-03-12T03:43:39.291Z,96.20
2019-03-12T03:46:05.090Z,96.25
2019-03-12T03:48:30.874Z,96.40
2019-03-12T03:50:56.671Z,96.54
2019-03-12T03:53:22.448Z,96.45
2019-03-12T03:55:48.247Z,96.57
2019-03-12T03:58:14.030Z,96.59
2019-03-12T04:00:39.835Z,96.33
2019-03-12T04:03:05.687Z,96.27
2019-03-12T04:05:31.532Z,96.44
2019-03-12T04:07:57.330Z,96.70
2019-03-12T04:10:23.131Z,96.61
2019-03-12T04:12:48.945Z,96.83
2019-03-12T04:15:17.879Z,96.78
2019-03-12T04:17:43.665Z,96.65
2019-03-12T04:20:12.168Z,96.64
2019-03-12T04:22:37.986Z,96.77
2019-03-12T04:25:04.682Z,96.64
2019-03-12T04:27:30.490Z,96.62
2019-03-12T04:29:56.307Z,96.77
2019-03-12T04:32:22.108Z,97.05
2019-03-12T04:34:47.890Z,97.10
2019-03-12T04:37:13.743Z,97.06
2019-03-12T04:39:39.487Z,97.12
2019-03-12T04:42:05.290Z,97.25
2019-03-12T04:44:31.097Z,97.25
2019-03-12T04:46:56.895Z,97.31
2019-03-12T04:49:22.688Z,97.29
2019-03-12T04:51:48.477Z,97.21
2019-03-12T04:54:14.259Z,97.15
2019-03-12T04:56:40.077Z,97.31
2019-03-12T04:59:05.860Z,97.34
2019-03-12T05:01:31.672Z,97.53
2019-03-12T05:03:57.459Z,97.47
2019-03-12T05:06:23.244Z,97.63
2019-03-12T05:08:49.044Z,97.55
2019-03-12T05:11:14.850Z,97.33
2019-03-12T05:13:40.641Z,97.31
2019-03-12T05:16:06.446Z,97.38
2019-03-12T05:18:32.262Z,97.30
2019-03-12T05:20:58.040Z,97.10
2019-03-12T05:23:23.836Z,97.14
2019-03-12T05:25:49.637Z,97.37
2019-03-12T05:28:15.434Z,97.29
2019-03-12T05:30:41.220Z,97.12
2019-03-12T05:33:07.017Z,97.12
2019-03-12T05:35:32.803Z,96.99
2019-03-12T05:37:58.609Z,97.02
2019-03-12T05:40:24.392Z,97.14
2019-03-12T05:42:50.197Z,97.09
2019-03-12T05:45:16.681Z,97.08
2019-03-12T05:47:42.594Z,97.01
2019-03-12T05:50:12.818Z,97.10
2019-03-12T05:52:38.606Z,97.03
2019-03-12T05:55:06.001Z,97.12
2019-03-12T05:57:31.789Z,97.12
2019-03-12T05:59:57.587Z,97.22
2019-03-12T06:02:23.375Z,97.28
2019-03-12T06:04:49.169Z,97.26
2019-03-12T06:07:14.978Z,97.31
2019-03-12T06:09:40.780Z,97.23
2019-03-12T06:12:06.560Z,97.30
2019-03-12T06:14:32.357Z,97.32
2019-03-12T06:16:58.164Z,97.22
2019-03-12T06:19:23.959Z,97.21
2019-03-12T06:21:49.742Z,97.38
2019-03-12T06:24:15.573Z,97.17
2019-03-12T06:26:42.436Z,97.16
2019-03-12T06:29:08.268Z,97.24
2019-03-12T06:31:42.020Z,97.28
2019-03-12T06:34:09.737Z,97.12
2019-03-12T06:36:37.436Z,97.19
2019-03-12T06:39:07.544Z,97.11
2019-03-12T06:41:35.269Z,97.07
2019-03-12T06:44:11.703Z,97.08
2019-03-12T06:46:57.577Z,96.88
2019-03-12T06:49:27.822Z,96.91
2019-03-12T06:52:07.355Z,96.84
2019-03-12T06:54:35.050Z,96.86
2019-03-12T06:57:02.761Z,96.78
2019-03-12T06:59:36.235Z,96.78
2019-03-12T07:02:03.936Z,96.78
2019-03-12T07:04:37.220Z,96.78
2019-03-12T07:07:21.694Z,96.74
2019-03-12T07:10:07.545Z,96.57
2019-03-12T07:12:41.069Z,96.44
2019-03-12T07:15:21.879Z,96.43
2019-03-12T07:17:52.186Z,96.50
2019-03-12T07:20:25.610Z,96.50
2019-03-12T07:22:53.300Z,96.41
2019-03-12T07:25:37.433Z,96.37
2019-03-12T07:28:21.718Z,96.32
2019-03-12T07:30:52.239Z,96.09
2019-03-12T07:33:19.938Z,96.12
2019-03-12T07:36:04.305Z,96.09
2019-03-12T07:38:34.906Z,96.01
2019-03-12T07:41:05.132Z,95.76
2019-03-12T07:43:35.351Z,95.69
2019-03-12T07:46:14.880Z,95.46
2019-03-12T07:48:48.632Z,95.53
2019-03-12T07:51:32.857Z,95.26
2019-03-12T07:54:03.319Z,95.30
2019-03-12T07:56:33.684Z,95.10
2019-03-12T07:59:03.897Z,94.61
2019-03-12T08:01:31.629Z,94.47
2019-03-12T08:04:17.308Z,94.12
2019-03-12T08:06:56.899Z,94.21
2019-03-12T08:09:33.304Z,93.65
2019-03-12T08:12:01.030Z,93.71
2019-03-12T08:14:45.502Z,93.19
2019-03-12T08:17:13.214Z,93.46
2019-03-12T08:19:40.913Z,93.43
2019-03-12T08:22:11.406Z,93.14
2019-03-12T08:24:44.918Z,91.99
2019-03-12T08:27:18.438Z,91.95
2019-03-12T08:29:46.127Z,91.07
2019-03-12T08:32:13.847Z,90.94
2019-03-12T08:34:41.535Z,90.51
2019-03-12T08:37:24.260Z,91.03
2019-03-12T08:40:04.029Z,89.12
2019-03-12T08:42:54.609Z,88.75
2019-03-12T08:45:26.759Z,87.01
2019-03-12T08:48:03.098Z,86.77
2019-03-12T08:50:33.375Z,86.05
2019-03-12T08:53:04.038Z,85.97
2019-03-12T08:55:34.247Z,85.40
2019-03-12T08:58:04.765Z,85.27
2019-03-12T09:00:32.460Z,84.94
2019-03-12T09:03:18.397Z,84.39
2019-03-12T09:06:03.988Z,84.08
2019-03-12T09:08:34.227Z,83.97
2019-03-12T09:11:10.608Z,84.03
2019-03-12T09:13:54.844Z,83.51
2019-03-12T09:16:28.360Z,83.63
2019-03-12T09:19:04.922Z,83.63
2019-03-12T09:21:49.327Z,83.51
2019-03-12T09:24:33.849Z,83.40
2019-03-12T09:27:07.380Z,83.28
2019-03-12T09:29:35.082Z,83.52
2019-03-12T09:32:02.775Z,83.02
2019-03-12T09:34:30.479Z,82.23
2019-03-12T09:37:10.156Z,81.77
2019-03-12T09:39:40.810Z,81.77
2019-03-12T09:42:08.518Z,81.52
2019-03-12T09:44:36.217Z,80.93
2019-03-12T09:47:12.846Z,81.53
2019-03-12T09:49:58.470Z,82.12
2019-03-12T09:52:26.171Z,82.46
2019-03-12T09:54:56.406Z,82.92
2019-03-12T09:57:24.098Z,82.54
2019-03-12T09:59:51.832Z,82.61
2019-03-12T10:02:19.527Z,83.43
2019-03-12T10:04:55.933Z,83.25
2019-03-12T10:07:23.619Z,83.91
2019-03-12T10:10:03.473Z,84.60
2019-03-12T10:12:33.917Z,86.22
2019-03-12T10:15:19.824Z,86.94
2019-03-12T10:17:50.298Z,87.11
2019-03-12T10:20:34.677Z,86.34
2019-03-12T10:23:14.464Z,86.09
2019-03-12T10:25:48.002Z,86.75
2019-03-12T10:28:21.629Z,86.50
2019-03-12T10:31:01.356Z,85.79
2019-03-12T10:33:41.146Z,86.39
2019-03-12T10:36:24.135Z,86.37
2019-03-12T10:39:41.999Z,85.38
2019-03-12T10:42:21.797Z,84.84
2019-03-12T10:44:52.301Z,85.39
2019-03-12T10:47:22.608Z,85.09
2019-03-12T10:49:48.755Z,84.79
2019-03-12T10:52:14.548Z,84.35
2019-03-12T10:54:40.366Z,84.55
2019-03-12T10:57:06.158Z,84.55
2019-03-12T10:59:31.957Z,84.86
2019-03-12T11:01:57.742Z,84.10
2019-03-12T11:04:23.549Z,85.05
2019-03-12T11:06:49.392Z,84.90
2019-03-12T11:09:15.189Z,85.82
2019-03-12T11:11:40.978Z,86.39
2019-03-12T11:14:06.806Z,86.91
2019-03-12T11:16:32.600Z,87.23
2019-03-12T11:18:58.390Z,87.69
2019-03-12T11:21:24.199Z,88.11
2019-03-12T11:23:50.013Z,88.67
2019-03-12T11:26:15.795Z,88.76
2019-03-12T11:28:41.701Z,89.42
2019-03-12T11:31:07.582Z,89.90
2019-03-12T11:33:33.372Z,90.34
2019-03-12T11:35:59.195Z,90.35
2019-03-12T11:38:24.973Z,90.49
2019-03-12T11:40:50.803Z,91.04
2019-03-12T11:43:16.605Z,91.04
2019-03-12T11:45:42.410Z,90.70
2019-03-12T11:48:08.189Z,91.06
2019-03-12T11:50:33.986Z,90.73
2019-03-12T11:53:00.774Z,90.30
2019-03-12T11:55:26.870Z,90.48
2019-03-12T11:57:52.658Z,90.66
2019-03-12T12:00:40.546Z,90.41
2019-03-12T12:03:06.337Z,90.12
2019-03-12T12:05:32.175Z,89.99
2019-03-12T12:07:58.003Z,90.03
2019-03-12T12:10:23.946Z,89.94
2019-03-12T12:12:49.890Z,89.86
2019-03-12T12:15:15.709Z,90.08
2019-03-12T12:17:41.500Z,89.82
2019-03-12T12:20:09.425Z,89.60
2019-03-12T12:22:35.209Z,88.49
2019-03-12T12:25:01.021Z,87.68
2019-03-12T12:27:26.811Z,87.68
2019-03-12T12:29:52.641Z,87.45
2019-03-12T12:32:18.413Z,87.04
2019-03-12T12:34:44.208Z,86.88
2019-03-12T12:37:10.018Z,86.12
2019-03-12T12:39:35.799Z,85.85
2019-03-12T12:42:01.596Z,85.30
2019-03-12T12:44:27.382Z,84.58
2019-03-12T12:46:53.189Z,84.43
2019-03-12T12:49:18.976Z,83.61
2019-03-12T12:51:44.780Z,83.85
2019-03-12T12:54:10.648Z,83.90
2019-03-12T12:56:36.486Z,83.58
2019-03-12T12:59:02.276Z,83.06
2019-03-12T13:01:28.090Z,83.60
2019-03-12T13:03:53.873Z,83.60
2019-03-12T13:06:19.697Z,82.96
2019-03-12T13:08:45.501Z,83.13
2019-03-12T13:11:11.300Z,83.13
2019-03-12T13:13:37.106Z,82.70
2019-03-12T13:16:02.905Z,82.90
2019-03-12T13:18:28.701Z,82.06
2019-03-12T13:20:54.502Z,82.24
2019-03-12T13:23:21.118Z,82.24
2019-03-12T13:25:46.917Z,81.27
2019-03-12T13:28:12.724Z,82.08
2019-03-12T13:30:38.507Z,80.71
2019-03-12T13:33:04.315Z,80.75
2019-03-12T13:35:30.100Z,81.74
2019-03-12T13:37:55.893Z,81.59
2019-03-12T13:40:23.115Z,81.91
2019-03-12T13:42:49.141Z,82.70
2019-03-12T13:45:19.574Z,81.71
2019-03-12T13:47:45.647Z,81.75
2019-03-12T13:50:12.064Z,81.26
2019-03-12T13:52:37.886Z,81.48
2019-03-12T13:55:06.975Z,81.35
2019-03-12T13:57:32.779Z,80.09
2019-03-12T13:59:58.580Z,79.88
2019-03-12T14:02:24.353Z,79.50
2019-03-12T14:04:50.180Z,79.10
2019-03-12T14:07:16.136Z,79.02
2019-03-12T14:09:41.927Z,77.18
2019-03-12T14:12:07.812Z,78.08
2019-03-12T14:14:33.614Z,77.64
2019-03-12T14:16:59.396Z,78.14
2019-03-12T14:19:25.194Z,78.74
2019-03-12T14:21:51.179Z,78.25
2019-03-12T14:24:16.987Z,77.97
2019-03-12T14:26:42.773Z,77.78
2019-03-12T14:29:08.571Z,78.44
2019-03-12T14:31:34.375Z,78.87
2019-03-12T14:34:00.170Z,78.41
2019-03-12T14:36:25.954Z,78.45
2019-03-12T14:38:51.768Z,78.28
2019-03-12T14:41:17.571Z,78.28
2019-03-12T14:43:43.388Z,78.38
2019-03-12T14:46:09.273Z,78.36
2019-03-12T14:48:44.068Z,78.73
2019-03-12T14:51:13.685Z,78.15
2019-03-12T14:53:40.984Z,78.61
2019-03-12T14:56:06.785Z,79.24
2019-03-12T14:58:32.578Z,78.80
2019-03-12T15:00:58.384Z,78.70
2019-03-12T15:03:24.160Z,78.45
2019-03-12T15:05:50.107Z,78.74
2019-03-12T15:08:15.898Z,79.13
2019-03-12T15:10:41.693Z,79.35
2019-03-12T15:13:07.483Z,79.92
2019-03-12T15:15:33.283Z,79.66
2019-03-12T15:17:59.085Z,80.95
2019-03-12T15:20:24.882Z,81.13
2019-03-12T15:22:50.669Z,79.91
2019-03-12T15:25:16.466Z,80.18
2019-03-12T15:27:42.263Z,79.51
2019-03-12T15:30:14.791Z,79.44
2019-03-12T15:32:40.576Z,78.38
2019-03-12T15:35:06.481Z,77.34
2019-03-12T15:37:32.263Z,77.34
2019-03-12T15:39:58.071Z,76.59
2019-03-12T15:42:23.848Z,76.42
2019-03-12T15:44:49.732Z,76.83
2019-03-12T15:47:15.522Z,76.78
2019-03-12T15:49:42.967Z,77.01
2019-03-12T15:52:09.024Z,77.53
2019-03-12T15:54:34.869Z,78.34
2019-03-12T15:57:00.670Z,78.34
2019-03-12T15:59:26.651Z,79.01
2019-03-12T16:01:52.443Z,78.74
2019-03-12T16:04:18.226Z,79.31
2019-03-12T16:06:44.070Z,80.58
2019-03-12T16:09:10.070Z,80.08
2019-03-12T16:11:35.971Z,80.66
2019-03-12T16:14:01.752Z,80.51
2019-03-12T16:16:27.544Z,80.46
2019-03-12T16:18:53.327Z,80.62
2019-03-12T16:21:19.132Z,79.40
2019-03-12T16:23:44.917Z,80.05
2019-03-12T16:26:10.721Z,79.63
2019-03-12T16:28:36.503Z,78.90
2019-03-12T16:31:02.310Z,79.44
2019-03-12T16:33:28.089Z,79.33
2019-03-12T16:35:53.888Z,78.48
2019-03-12T16:38:19.681Z,78.50
2019-03-12T16:40:45.463Z,78.67
2019-03-12T16:43:11.276Z,78.69
2019-03-12T16:45:37.065Z,76.40
2019-03-12T16:48:02.860Z,77.40
2019-03-12T16:50:28.646Z,77.55
2019-03-12T16:52:54.463Z,77.44
2019-03-12T16:55:20.266Z,77.34
2019-03-12T16:57:46.056Z,76.13
2019-03-12T17:00:13.640Z,75.34
2019-03-12T17:02:39.464Z,75.79
2019-03-12T17:05:07.793Z,75.59
2019-03-12T17:07:33.589Z,75.08
2019-03-12T17:09:59.379Z,75.47
2019-03-12T17:12:25.173Z,75.02
2019-03-12T17:14:50.958Z,75.19
2019-03-12T17:17:16.768Z,74.03
2019-03-12T17:19:42.546Z,74.03
2019-03-12T17:22:08.350Z,72.98
2019-03-12T17:24:34.136Z,73.27
2019-03-12T17:26:59.956Z,72.28
2019-03-12T17:29:25.782Z,72.28
2019-03-12T17:31:51.572Z,72.13
2019-03-12T17:34:17.389Z,72.84
2019-03-12T17:36:43.173Z,72.32
2019-03-12T17:39:09.082Z,72.54
2019-03-12T17:41:34.873Z,72.27
2019-03-12T17:44:00.678Z,73.05
2019-03-12T17:46:26.465Z,73.56
2019-03-12T17:48:52.257Z,74.00
2019-03-12T17:51:18.041Z,74.73
2019-03-12T17:53:43.846Z,75.48
2019-03-12T17:56:09.632Z,75.82
2019-03-12T17:58:35.429Z,75.88
2019-03-12T18:01:01.222Z,77.03
2019-03-12T18:03:27.009Z,78.22
2019-03-12T18:05:52.813Z,77.61
2019-03-12T18:08:18.606Z,77.87
2019-03-12T18:10:44.393Z,78.71
2019-03-12T18:13:10.199Z,79.21
2019-03-12T18:15:35.983Z,80.15
2019-03-12T18:18:01.783Z,80.78
2019-03-12T18:20:27.695Z,80.82
2019-03-12T18:22:53.529Z,80.61
2019-03-12T18:25:35.199Z,80.60
2019-03-12T18:28:00.997Z,80.93
2019-03-12T18:30:26.878Z,81.10
2019-03-12T18:32:52.661Z,81.15
2019-03-12T18:35:18.451Z,81.36
2019-03-12T18:37:44.233Z,80.96
2019-03-12T18:40:12.733Z,80.59
2019-03-12T18:42:38.616Z,80.38
2019-03-12T18:45:11.309Z,80.88
2019-03-12T18:47:37.136Z,81.01
2019-03-12T18:50:09.309Z,81.55
2019-03-12T18:52:35.097Z,81.31
2019-03-12T18:55:00.891Z,81.58
2019-03-12T18:57:26.678Z,81.49
2019-03-12T18:59:52.590Z,81.93
2019-03-12T19:02:18.381Z,82.45
2019-03-12T19:04:44.178Z,82.61
2019-03-12T19:07:10.002Z,82.52
2019-03-12T19:09:35.798Z,82.88
2019-03-12T19:12:01.581Z,83.29
2019-03-12T19:14:27.385Z,82.92
2019-03-12T19:16:53.174Z,82.91
2019-03-12T19:19:18.977Z,82.92
2019-03-12T19:21:44.755Z,82.66
2019-03-12T19:24:10.563Z,82.23
2019-03-12T19:26:36.339Z,82.07
2019-03-12T19:29:02.150Z,81.42
2019-03-12T19:31:32.622Z,81.21
2019-03-12T19:33:59.712Z,81.18
2019-03-12T19:36:25.511Z,81.03
2019-03-12T19:38:51.389Z,81.09
2019-03-12T19:41:17.209Z,80.71
2019-03-12T19:43:42.999Z,80.56
2019-03-12T19:46:08.798Z,80.76
2019-03-12T19:48:34.583Z,80.98
2019-03-12T19:51:00.382Z,80.98
2019-03-12T19:53:26.187Z,80.82
2019-03-12T19:55:55.313Z,80.33
2019-03-12T19:58:21.170Z,80.60
2019-03-12T20:00:47.059Z,80.60
2019-03-12T20:03:15.271Z,80.74
2019-03-12T20:05:40.574Z,81.11
2019-03-12T20:08:06.347Z,80.94
2019-03-12T20:10:48.352Z,81.08
2019-03-12T20:13:51.717Z,79.10
2019-03-12T20:16:33.207Z,79.87
2019-03-12T20:19:35.982Z,80.34
2019-03-12T20:22:34.571Z,79.16
2019-03-12T20:25:37.968Z,76.89
2019-03-12T20:28:13.421Z,77.07
2019-03-12T20:31:06.897Z,76.66
2019-03-12T20:34:03.556Z,75.71
2019-03-12T20:37:07.023Z,75.60
2019-03-12T20:40:06.818Z,74.64
2019-03-12T20:42:36.432Z,74.95
2019-03-12T20:45:26.810Z,74.18
2019-03-12T20:48:30.000Z,74.23
2019-03-12T20:51:08.474Z,74.69
2019-03-12T20:54:04.189Z,73.76
2019-03-12T20:57:10.698Z,73.80
2019-03-12T21:00:02.710Z,73.73
2019-03-12T21:02:47.642Z,71.46
2019-03-12T21:05:32.529Z,71.84
2019-03-12T21:08:16.993Z,72.61
2019-03-12T21:10:52.413Z,73.39
2019-03-12T21:13:47.456Z,75.07
2019-03-12T21:16:33.502Z,77.33
2019-03-12T21:19:29.347Z,79.41
2019-03-12T21:22:23.121Z,79.57
2019-03-12T21:25:04.391Z,80.62
2019-03-12T21:27:39.853Z,80.93
2019-03-12T21:30:05.481Z,81.55
2019-03-12T21:32:31.404Z,82.76
2019-03-12T21:34:57.198Z,83.16
2019-03-12T21:37:23.199Z,82.88
2019-03-12T21:39:55.815Z,84.41
2019-03-12T21:42:16.890Z,84.91
2019-03-12T21:44:42.679Z,85.16
2019-03-12T21:47:08.476Z,84.90
2019-03-12T21:49:34.265Z,84.98
2019-03-12T21:52:00.081Z,84.99
2019-03-12T21:54:25.859Z,85.14
2019-03-12T21:56:51.647Z,85.18
2019-03-12T21:59:17.461Z,85.41
2019-03-12T22:01:43.248Z,85.46
2019-03-12T22:04:09.044Z,85.52
2019-03-12T22:06:35.049Z,84.88
2019-03-12T22:09:03.651Z,84.48
2019-03-12T22:11:29.461Z,84.25
2019-03-12T22:13:55.282Z,84.05
2019-03-12T22:16:21.089Z,83.59
2019-03-12T22:18:46.907Z,83.36
2019-03-12T22:21:14.590Z,83.44
2019-03-12T22:23:42.319Z,82.99
2019-03-12T22:26:08.105Z,82.96
2019-03-12T22:28:36.003Z,81.78
2019-03-12T22:31:01.809Z,82.05
2019-03-12T22:33:27.606Z,82.20
2019-03-12T22:35:53.390Z,82.96
2019-03-12T22:38:19.210Z,83.37
2019-03-12T22:40:45.016Z,83.80
2019-03-12T22:43:10.811Z,84.42
2019-03-12T22:45:36.600Z,85.07
2019-03-12T22:48:02.399Z,85.12
2019-03-12T22:50:28.198Z,85.40
2019-03-12T22:52:54.013Z,85.71
2019-03-12T22:55:19.830Z,85.67
2019-03-12T22:57:45.621Z,86.32
2019-03-12T23:00:19.197Z,86.20
2019-03-12T23:02:44.997Z,86.39
2019-03-12T23:05:11.098Z,86.94
2019-03-12T23:07:36.918Z,87.49
2019-03-12T23:10:05.523Z,87.41
2019-03-12T23:12:31.304Z,87.46
2019-03-12T23:14:57.101Z,87.60
2019-03-12T23:17:22.880Z,88.09
2019-03-12T23:19:48.688Z,88.03
2019-03-12T23:22:14.461Z,88.25
2019-03-12T23:24:40.281Z,88.82
2019-03-12T23:27:06.069Z,88.63
2019-03-12T23:29:31.878Z,89.01
2019-03-12T23:31:57.663Z,89.26
2019-03-12T23:34:23.456Z,89.46
2019-03-12T23:36:49.244Z,89.73
2019-03-12T23:39:15.145Z,90.07
2019-03-12T23:41:40.930Z,89.60
2019-03-12T23:44:06.921Z,89.99
2019-03-12T23:46:32.723Z,90.19
2019-03-12T23:48:58.508Z,90.14
2019-03-12T23:51:24.340Z,90.47
2019-03-12T23:53:50.133Z,90.67
2019-03-12T23:56:15.946Z,91.03
2019-03-12T23:58:41.741Z,91.09
